createdAt,value
2022-08-18T00:01:10.975Z,100518.00
2022-08-18T00:04:36.576Z,100515.53
2022-08-18T00:07:39.447Z,100524.78
2022-08-18T00:10:50.074Z,100519.03
2022-08-18T00:13:53.217Z,100521.28
2022-08-18T00:16:56.219Z,100518.59
2022-08-18T00:20:01.227Z,100515.31
2022-08-18T00:23:04.187Z,100519.63
2022-08-18T00:26:07.442Z,100513.47
2022-08-18T00:29:10.642Z,100514.09
2022-08-18T00:32:16.802Z,100511.22
2022-08-18T00:35:26.625Z,100505.88
2022-08-18T00:38:32.190Z,100500.56
2022-08-18T00:41:35.142Z,100503.44
2022-08-18T00:44:38.158Z,100505.50
2022-08-18T00:47:43.303Z,100501.81
2022-08-18T00:50:53.403Z,100501.38
2022-08-18T00:54:05.922Z,100495.59
2022-08-18T00:57:10.274Z,100493.75
2022-08-18T01:00:15.177Z,100503.78
2022-08-18T01:03:24.407Z,100491.88
2022-08-18T01:06:39.353Z,100482.03
2022-08-18T01:09:42.386Z,100479.38
2022-08-18T01:12:47.013Z,100483.06
2022-08-18T01:15:50.207Z,100483.22
2022-08-18T01:19:11.634Z,100484.03
2022-08-18T01:22:24.979Z,100480.94
2022-08-18T01:25:46.909Z,100478.25
2022-08-18T01:28:50.703Z,100479.06
2022-08-18T01:31:56.203Z,100483.19
2022-08-18T01:35:01.022Z,100480.69
2022-08-18T01:38:04.058Z,100474.13
2022-08-18T01:41:27.426Z,100478.22
2022-08-18T01:44:33.769Z,100475.69
2022-08-18T01:47:47.438Z,100468.69
2022-08-18T01:50:53.473Z,100469.06
2022-08-18T01:53:56.666Z,100462.50
2022-08-18T01:57:01.673Z,100452.66
2022-08-18T02:00:06.721Z,100450.66
2022-08-18T02:03:15.907Z,100455.53
2022-08-18T02:06:32.242Z,100456.09
2022-08-18T02:09:38.632Z,100444.75
2022-08-18T02:12:43.437Z,100433.25
2022-08-18T02:15:46.835Z,100429.06
2022-08-18T02:18:50.567Z,100418.41
2022-08-18T02:21:54.526Z,100413.31
2022-08-18T02:24:58.658Z,100412.31
2022-08-18T02:28:02.951Z,100429.03
2022-08-18T02:31:08.695Z,100416.34
2022-08-18T02:34:14.435Z,100405.25
2022-08-18T02:37:17.394Z,100410.41
2022-08-18T02:40:20.667Z,100421.19
2022-08-18T02:43:25.436Z,100425.69
2022-08-18T02:46:31.081Z,100414.81
2022-08-18T02:49:36.819Z,100415.34
2022-08-18T02:52:40.648Z,100415.09
2022-08-18T02:55:43.834Z,100415.75
2022-08-18T02:58:48.293Z,100406.31
2022-08-18T03:01:54.288Z,100404.69
2022-08-18T03:04:57.333Z,100408.41
2022-08-18T03:08:00.513Z,100408.84
2022-08-18T03:11:03.532Z,100413.16
2022-08-18T03:14:11.318Z,100406.53
2022-08-18T03:17:14.875Z,100401.81
2022-08-18T03:20:18.333Z,100405.72
2022-08-18T03:23:33.647Z,100408.13
2022-08-18T03:26:36.745Z,100409.75
2022-08-18T03:29:41.027Z,100401.94
2022-08-18T03:32:45.733Z,100408.75
2022-08-18T03:35:49.348Z,100403.34
2022-08-18T03:38:54.094Z,100400.00
2022-08-18T03:42:01.569Z,100391.03
2022-08-18T03:45:13.225Z,100390.78
2022-08-18T03:48:21.167Z,100396.22
2022-08-18T03:51:27.405Z,100393.38
2022-08-18T03:54:33.866Z,100390.16
2022-08-18T03:57:44.071Z,100397.84
2022-08-18T04:00:48.384Z,100403.25
2022-08-18T04:03:54.160Z,100402.63
2022-08-18T04:07:01.199Z,100388.75
2022-08-18T04:10:04.978Z,100398.06
2022-08-18T04:13:07.965Z,100398.06
2022-08-18T04:16:12.702Z,100398.06
2022-08-18T04:19:26.973Z,100398.44
2022-08-18T04:22:33.487Z,100387.66
2022-08-18T04:25:36.639Z,100392.72
2022-08-18T04:28:42.675Z,100388.22
2022-08-18T04:31:47.184Z,100380.44
2022-08-18T04:34:50.586Z,100374.72
2022-08-18T04:37:53.712Z,100363.72
2022-08-18T04:40:58.624Z,100356.16
2022-08-18T04:44:04.893Z,100348.56
2022-08-18T04:47:10.926Z,100350.09
2022-08-18T04:50:13.910Z,100355.22
2022-08-18T04:53:34.236Z,100353.03
2022-08-18T04:56:40.174Z,100371.69
2022-08-18T04:59:46.340Z,100366.16
2022-08-18T05:02:50.855Z,100374.00
2022-08-18T05:05:54.293Z,100390.16
2022-08-18T05:09:01.144Z,100391.63
2022-08-18T05:12:05.503Z,100394.81
2022-08-18T05:15:10.710Z,100394.25
2022-08-18T05:18:14.955Z,100389.94
2022-08-18T05:21:22.529Z,100392.09
2022-08-18T05:24:36.909Z,100402.56
2022-08-18T05:27:43.829Z,100403.00
2022-08-18T05:30:46.792Z,100401.16
2022-08-18T05:33:51.793Z,100408.34
2022-08-18T05:37:17.067Z,100422.69
2022-08-18T05:40:24.575Z,100426.78
2022-08-18T05:43:27.665Z,100441.97
2022-08-18T05:46:40.778Z,100446.09
2022-08-18T05:49:48.042Z,100444.97
2022-08-18T05:52:56.350Z,100455.56
2022-08-18T05:56:27.089Z,100462.97
2022-08-18T05:59:34.949Z,100462.66
2022-08-18T06:02:45.819Z,100467.19
2022-08-18T06:05:57.426Z,100481.09
2022-08-18T06:09:12.050Z,100470.97
2022-08-18T06:12:25.768Z,100485.25
2022-08-18T06:15:42.644Z,100478.75
2022-08-18T06:18:54.450Z,100481.31
2022-08-18T06:22:13.142Z,100482.81
2022-08-18T06:25:24.209Z,100505.53
2022-08-18T06:28:37.315Z,100502.38
2022-08-18T06:31:57.210Z,100520.84
2022-08-18T06:35:18.060Z,100531.53
2022-08-18T06:38:45.405Z,100534.00
2022-08-18T06:41:53.582Z,100525.06
2022-08-18T06:45:02.225Z,100535.31
2022-08-18T06:48:15.554Z,100539.59
2022-08-18T06:51:22.389Z,100538.19
2022-08-18T06:54:31.564Z,100541.94
2022-08-18T06:57:38.456Z,100539.09
2022-08-18T07:00:56.725Z,100544.44
2022-08-18T07:03:59.887Z,100539.94
2022-08-18T07:07:16.166Z,100548.13
2022-08-18T07:10:36.604Z,100557.97
2022-08-18T07:13:44.392Z,100548.97
2022-08-18T07:16:58.409Z,100547.56
2022-08-18T07:20:09.527Z,100551.84
2022-08-18T07:23:26.604Z,100544.03
2022-08-18T07:26:31.177Z,100547.28
2022-08-18T07:29:38.500Z,100538.66
2022-08-18T07:32:47.565Z,100538.88
2022-08-18T07:35:56.458Z,100542.97
2022-08-18T07:39:08.602Z,100545.59
2022-08-18T07:42:50.629Z,100554.22
2022-08-18T07:45:45.960Z,100549.66
2022-08-18T07:48:49.220Z,100552.56
2022-08-18T07:52:02.247Z,100554.16
2022-08-18T07:55:14.730Z,100559.91
2022-08-18T07:58:27.842Z,100562.75
2022-08-18T08:01:40.830Z,100567.47
2022-08-18T08:04:50.849Z,100560.66
2022-08-18T08:08:01.041Z,100559.38
2022-08-18T08:11:17.975Z,100571.06
2022-08-18T08:14:38.385Z,100574.50
2022-08-18T08:17:48.151Z,100581.66
2022-08-18T08:20:57.433Z,100579.84
2022-08-18T08:24:13.184Z,100577.34
2022-08-18T08:27:27.714Z,100579.38
2022-08-18T08:30:37.676Z,100575.25
2022-08-18T08:33:51.131Z,100582.84
2022-08-18T08:37:01.709Z,100586.88
2022-08-18T08:40:14.886Z,100583.63
2022-08-18T08:43:22.854Z,100585.84
2022-08-18T08:46:31.259Z,100584.50
2022-08-18T08:49:42.643Z,100583.94
2022-08-18T08:52:49.648Z,100578.50
2022-08-18T08:56:02.210Z,100580.31
2022-08-18T08:59:11.043Z,100576.91
2022-08-18T09:02:49.996Z,100570.41
2022-08-18T09:06:04.835Z,100570.81
2022-08-18T09:09:29.746Z,100569.03
2022-08-18T09:13:00.365Z,100563.03
2022-08-18T09:16:16.843Z,100563.03
2022-08-18T09:19:58.876Z,100560.00
2022-08-18T09:23:09.384Z,100555.13
2022-08-18T09:26:40.508Z,100555.06
2022-08-18T09:29:53.583Z,100557.44
2022-08-18T09:33:19.033Z,100552.13
2022-08-18T09:36:40.197Z,100554.53
2022-08-18T09:40:13.158Z,100549.06
2022-08-18T09:43:30.305Z,100555.19
2022-08-18T09:50:37.285Z,100545.13
2022-08-18T09:50:55.195Z,100542.00
2022-08-18T09:54:25.119Z,100532.06
2022-08-18T09:57:30.395Z,100534.41
2022-08-18T10:00:44.667Z,100527.84
2022-08-18T10:04:21.575Z,100539.09
2022-08-18T10:07:43.354Z,100530.84
2022-08-18T10:10:59.355Z,100531.44
2022-08-18T10:14:27.229Z,100520.25
2022-08-18T10:17:50.318Z,100511.69
2022-08-18T10:21:05.437Z,100513.25
2022-08-18T10:24:36.388Z,100516.47
2022-08-18T10:27:54.469Z,100515.19
2022-08-18T10:31:10.101Z,100520.56
2022-08-18T10:34:19.194Z,100520.63
2022-08-18T10:37:27.013Z,100518.69
2022-08-18T10:40:32.317Z,100524.41
2022-08-18T10:43:45.596Z,100525.47
2022-08-18T10:47:00.650Z,100511.66
2022-08-18T10:50:10.922Z,100518.53
2022-08-18T10:53:38.804Z,100513.19
2022-08-18T10:56:49.845Z,100509.66
2022-08-18T11:00:03.922Z,100509.78
2022-08-18T11:03:50.169Z,100502.22
2022-08-18T11:06:48.868Z,100511.94
2022-08-18T11:10:13.033Z,100509.81
2022-08-18T11:13:26.441Z,100501.13
2022-08-18T11:16:45.105Z,100497.06
2022-08-18T11:19:50.664Z,100498.97
2022-08-18T11:22:57.249Z,100496.50
2022-08-18T11:26:18.438Z,100492.91
2022-08-18T11:29:32.531Z,100491.00
2022-08-18T11:32:51.394Z,100485.75
2022-08-18T11:35:59.218Z,100485.09
2022-08-18T11:39:04.855Z,100489.09
2022-08-18T11:42:15.990Z,100488.59
2022-08-18T11:45:34.494Z,100488.19
2022-08-18T11:48:51.406Z,100485.47
2022-08-18T11:52:02.333Z,100478.50
2022-08-18T11:55:24.127Z,100480.66
2022-08-18T11:58:40.919Z,100468.66
2022-08-18T12:01:51.243Z,100476.09
2022-08-18T12:05:08.691Z,100478.63
2022-08-18T12:08:54.504Z,100464.25
2022-08-18T12:11:54.287Z,100471.84
2022-08-18T12:18:28.282Z,100467.47
2022-08-18T12:21:34.783Z,100471.97
2022-08-18T12:24:39.509Z,100468.03
2022-08-18T12:27:43.836Z,100466.72
2022-08-18T12:30:47.459Z,100456.41
2022-08-18T12:34:00.114Z,100457.19
2022-08-18T12:37:34.071Z,100458.16
2022-08-18T12:40:32.473Z,100445.66
2022-08-18T12:43:35.974Z,100443.44
2022-08-18T12:46:42.829Z,100439.41
2022-08-18T12:49:46.282Z,100432.88
2022-08-18T12:52:55.182Z,100424.41
2022-08-18T12:55:59.206Z,100432.72
2022-08-18T12:59:06.624Z,100432.25
2022-08-18T13:02:11.515Z,100429.78
2022-08-18T13:05:15.077Z,100435.59
2022-08-18T13:08:27.659Z,100427.13
2022-08-18T13:11:34.107Z,100421.03
2022-08-18T13:14:37.915Z,100417.25
2022-08-18T13:17:46.637Z,100410.38
2022-08-18T13:20:51.602Z,100404.66
2022-08-18T13:23:56.847Z,100397.81
2022-08-18T13:27:04.396Z,100388.50
2022-08-18T13:30:30.081Z,100385.41
2022-08-18T13:33:56.550Z,100384.84
2022-08-18T13:36:57.865Z,100385.84
2022-08-18T13:40:03.883Z,100383.03
2022-08-18T13:43:09.227Z,100377.81
2022-08-18T13:46:16.022Z,100383.69
2022-08-18T13:49:23.875Z,100377.31
2022-08-18T13:52:34.660Z,100382.81
2022-08-18T13:55:39.737Z,100376.16
2022-08-18T13:58:53.071Z,100371.34
2022-08-18T14:01:56.971Z,100366.91
2022-08-18T14:05:00.159Z,100353.69
2022-08-18T14:08:03.394Z,100353.56
2022-08-18T14:11:07.836Z,100343.09
2022-08-18T14:14:10.804Z,100346.41
2022-08-18T14:17:13.906Z,100346.13
2022-08-18T14:20:36.491Z,100347.22
2022-08-18T14:24:10.303Z,100338.28
2022-08-18T14:27:17.533Z,100335.84
2022-08-18T14:30:21.138Z,100345.81
2022-08-18T14:33:49.741Z,100346.91
2022-08-18T14:36:50.524Z,100356.13
2022-08-18T14:39:56.079Z,100361.97
2022-08-18T14:43:01.097Z,100366.25
2022-08-18T14:46:05.144Z,100383.06
2022-08-18T14:49:10.267Z,100366.06
2022-08-18T14:52:14.524Z,100372.13
2022-08-18T14:55:18.915Z,100375.38
2022-08-18T14:58:28.006Z,100379.81
2022-08-18T15:01:34.740Z,100383.75
2022-08-18T15:04:38.558Z,100392.22
2022-08-18T15:07:59.546Z,100386.53
2022-08-18T15:11:11.845Z,100392.94
2022-08-18T15:14:17.575Z,100386.75
2022-08-18T15:17:22.522Z,100373.47
2022-08-18T15:20:29.715Z,100373.84
2022-08-18T15:23:50.415Z,100395.63
2022-08-18T15:26:57.779Z,100391.28
2022-08-18T15:30:05.947Z,100397.38
2022-08-18T15:33:14.292Z,100391.94
2022-08-18T15:36:21.433Z,100387.03
2022-08-18T15:39:31.805Z,100388.22
2022-08-18T15:42:36.099Z,100381.31
2022-08-18T15:45:56.234Z,100376.97
2022-08-18T15:49:01.443Z,100368.84
2022-08-18T15:52:05.279Z,100372.81
2022-08-18T15:55:14.882Z,100375.47
2022-08-18T15:58:22.328Z,100383.13
2022-08-18T16:01:32.158Z,100378.53
2022-08-18T16:04:39.374Z,100384.25
2022-08-18T16:07:45.991Z,100393.78
2022-08-18T16:10:49.719Z,100419.97
2022-08-18T16:13:52.703Z,100435.69
2022-08-18T16:17:00.250Z,100452.28
2022-08-18T16:20:03.308Z,100460.03
2022-08-18T16:23:07.948Z,100470.16
2022-08-18T16:29:22.434Z,100508.94
2022-08-18T16:32:26.910Z,100521.84
2022-08-18T16:35:31.655Z,100530.41
2022-08-18T16:38:34.771Z,100504.97
2022-08-18T16:41:38.941Z,100432.03
2022-08-18T16:44:42.142Z,100380.84
2022-08-18T16:47:46.443Z,100322.44
2022-08-18T16:50:51.517Z,100271.97
2022-08-18T16:53:55.142Z,100245.19
2022-08-18T16:56:58.225Z,100220.25
2022-08-18T17:00:18.433Z,100210.22
2022-08-18T17:03:40.846Z,100173.81
2022-08-18T17:06:47.616Z,100175.44
2022-08-18T17:09:52.627Z,100145.19
2022-08-18T17:12:55.900Z,100154.78
2022-08-18T17:16:00.950Z,100149.06
2022-08-18T17:19:08.213Z,100129.63
2022-08-18T17:22:11.340Z,100106.94
2022-08-18T17:25:18.014Z,100106.34
2022-08-18T17:28:32.217Z,100114.69
2022-08-18T17:31:49.439Z,100110.00
2022-08-18T17:35:03.774Z,100120.41
2022-08-18T17:38:15.282Z,100139.66
2022-08-18T17:41:20.479Z,100159.66
2022-08-18T17:44:31.071Z,100158.63
2022-08-18T17:47:42.031Z,100157.44
2022-08-18T17:51:11.452Z,100141.84
2022-08-18T17:54:24.634Z,100125.72
2022-08-18T17:57:31.279Z,100116.94
2022-08-18T18:01:24.334Z,100123.06
2022-08-18T18:05:11.594Z,100135.56
2022-08-18T18:09:25.221Z,100140.69
2022-08-18T18:13:25.302Z,100143.75
2022-08-18T18:17:35.814Z,100143.75
2022-08-18T18:21:05.718Z,100162.56
2022-08-18T18:24:16.389Z,100167.25
2022-08-18T18:27:37.010Z,100186.66
2022-08-18T18:30:40.035Z,100196.25
2022-08-18T18:33:44.183Z,100199.72
2022-08-18T18:36:50.014Z,100191.75
2022-08-18T18:39:59.929Z,100186.44
2022-08-18T18:43:24.035Z,100198.28
2022-08-18T18:46:32.099Z,100194.00
2022-08-18T18:49:44.878Z,100186.81
2022-08-18T18:53:02.541Z,100185.19
2022-08-18T18:56:18.765Z,100193.75
2022-08-18T18:59:39.280Z,100193.75
2022-08-18T19:02:57.595Z,100189.69
2022-08-18T19:06:19.404Z,100204.22
2022-08-18T19:09:29.718Z,100194.19
2022-08-18T19:12:43.899Z,100199.50
2022-08-18T19:15:49.044Z,100191.75
2022-08-18T19:19:35.094Z,100204.81
2022-08-18T19:22:23.280Z,100224.00
2022-08-18T19:25:30.113Z,100238.56
2022-08-18T19:29:12.143Z,100229.78
2022-08-18T19:32:08.290Z,100230.22
2022-08-18T19:35:19.644Z,100223.88
2022-08-18T19:38:33.376Z,100199.94
2022-08-18T19:41:47.904Z,100188.28
2022-08-18T19:45:15.841Z,100195.06
2022-08-18T19:48:28.983Z,100236.34
2022-08-18T19:51:37.483Z,100235.53
2022-08-18T19:54:56.106Z,100223.06
2022-08-18T19:58:31.866Z,100213.81
2022-08-18T20:01:52.134Z,100208.50
2022-08-18T20:05:15.503Z,100203.22
2022-08-18T20:08:47.374Z,100199.13
2022-08-18T20:12:10.939Z,100206.06
2022-08-18T20:15:20.475Z,100202.38
2022-08-18T20:18:34.391Z,100202.59
2022-08-18T20:21:48.248Z,100207.69
2022-08-18T20:24:54.543Z,100209.53
2022-08-18T20:28:33.486Z,100211.38
2022-08-18T20:31:53.732Z,100219.34
2022-08-18T20:35:17.947Z,100228.91
2022-08-18T20:38:34.205Z,100214.63
2022-08-18T20:41:50.478Z,100235.06
2022-08-18T20:44:59.919Z,100227.72
2022-08-18T20:48:18.349Z,100225.25
2022-08-18T20:51:26.657Z,100250.59
2022-08-18T20:54:57.743Z,100251.84
2022-08-18T20:58:08.123Z,100275.97
2022-08-18T21:01:14.542Z,100279.88
2022-08-18T21:04:17.524Z,100258.63
2022-08-18T21:07:36.741Z,100238.78
2022-08-18T21:10:51.288Z,100202.97
2022-08-18T21:13:57.301Z,100170.88
2022-08-18T21:17:00.435Z,100109.47
2022-08-18T21:20:07.670Z,100073.03
2022-08-18T21:23:14.849Z,100054.66
2022-08-18T21:26:18.315Z,100055.44
2022-08-18T21:29:23.121Z,100039.91
2022-08-18T21:32:32.375Z,100023.22
2022-08-18T21:35:38.000Z,100029.06
2022-08-18T21:39:05.093Z,100037.50
2022-08-18T21:42:20.430Z,100024.41
2022-08-18T21:45:24.239Z,100029.16
2022-08-18T21:48:29.028Z,100013.25
2022-08-18T21:51:43.204Z,100021.59
2022-08-18T21:54:47.928Z,100024.66
2022-08-18T21:58:02.676Z,100029.78
2022-08-18T22:01:23.544Z,100037.94
2022-08-18T22:04:35.840Z,100038.53
2022-08-18T22:07:47.833Z,100042.00
2022-08-18T22:12:00.074Z,100040.75
2022-08-18T22:15:11.493Z,100033.81
2022-08-18T22:18:41.319Z,100013.78
2022-08-18T22:21:49.821Z,99998.28
2022-08-18T22:24:56.745Z,100003.63
2022-08-18T22:28:01.733Z,100009.69
2022-08-18T22:31:05.782Z,100017.03
2022-08-18T22:34:11.382Z,100015.56
2022-08-18T22:37:19.393Z,100018.88
2022-08-18T22:40:22.634Z,100019.47
2022-08-18T22:43:27.211Z,100014.78
2022-08-18T22:46:30.211Z,100020.09
2022-08-18T22:49:37.108Z,100009.78
2022-08-18T22:52:43.882Z,100015.47
2022-08-18T22:55:46.881Z,100015.63
2022-08-18T22:58:51.492Z,100017.44
2022-08-18T23:01:56.279Z,100012.56
2022-08-18T23:05:00.734Z,100005.56
2022-08-18T23:08:03.983Z,99999.06
2022-08-18T23:11:07.152Z,99996.78
2022-08-18T23:14:12.292Z,99995.38
2022-08-18T23:17:15.966Z,99997.38
2022-08-18T23:20:20.114Z,99990.06
2022-08-18T23:23:31.667Z,100011.06
2022-08-18T23:26:35.258Z,100013.25
2022-08-18T23:29:41.130Z,100016.88
2022-08-18T23:32:44.110Z,100009.16
2022-08-18T23:35:48.122Z,100010.81
2022-08-18T23:38:51.099Z,100008.13
2022-08-18T23:41:55.236Z,99995.72
2022-08-18T23:45:03.223Z,99982.22
2022-08-18T23:48:07.313Z,99990.19
2022-08-18T23:51:10.356Z,99997.09
2022-08-18T23:54:18.042Z,99999.34
2022-08-18T23:57:21.046Z,99984.88
